Terminal Aerodrome Forecast
Issued by NWS Green Bay, WI

Home | Current Version | Previous Version | Graphics & Text | Print | Product List | Glossary Off
Versions: 1 2 3 4 5 6 7 8 9 10 11 12 13 14 15 16

000
FTUS43 KGRB 281252 AAB
TAFGRB
TAF AMD
KGRB 281252Z 2813/0112 14008KT 4SM BR SCT006 OVC040
      TEMPO 2813/2815 2SM BR OVC006
     FM281500 14005KT 1 1/2SM BR VCSH OVC006
     FM282200 01008KT 1 1/2SM -RA BR OVC006
      TEMPO 2822/0102 1/2SM FG OVC003
     FM010500 01015G22KT 2SM -RA BR OVC006
     FM011000 01015G22KT 2SM -SN OVC006=

USA.gov is the U.S. government's official web portal to all federal, state and local government web resources and services.